createdAt,value
2023-05-25T00:00:57.500Z,22.89
2023-05-25T00:03:28.043Z,22.53
2023-05-25T00:05:55.261Z,22.41
2023-05-25T00:08:21.847Z,22.42
2023-05-25T00:10:48.459Z,22.63
2023-05-25T00:13:15.054Z,22.71
2023-05-25T00:15:41.788Z,22.49
2023-05-25T00:18:08.604Z,22.31
2023-05-25T00:20:35.494Z,22.32
2023-05-25T00:23:05.034Z,22.33
2023-05-25T00:25:31.762Z,21.93
2023-05-25T00:27:58.305Z,21.74
2023-05-25T00:30:25.051Z,22.09
2023-05-25T00:32:51.688Z,22.20
2023-05-25T00:35:18.388Z,22.26
2023-05-25T00:37:45.439Z,22.55
2023-05-25T00:40:17.998Z,22.59
2023-05-25T00:42:44.731Z,22.52
2023-05-25T00:45:12.250Z,22.44
2023-05-25T00:47:44.259Z,22.15
2023-05-25T00:50:15.287Z,22.32
2023-05-25T00:52:42.064Z,22.37
2023-05-25T00:55:12.027Z,22.40
2023-05-25T00:57:41.442Z,22.45
2023-05-25T01:00:11.344Z,22.46
2023-05-25T01:02:40.883Z,22.48
2023-05-25T01:09:44.471Z,22.56
2023-05-25T01:12:14.963Z,22.51
2023-05-25T01:14:42.109Z,22.43
2023-05-25T01:17:10.271Z,22.46
2023-05-25T01:19:40.810Z,22.25
2023-05-25T01:22:38.346Z,22.29
2023-05-25T01:25:22.919Z,22.26
2023-05-25T01:28:05.762Z,22.11
2023-05-25T01:30:33.095Z,22.02
2023-05-25T01:33:00.953Z,22.06
2023-05-25T01:35:28.418Z,22.33
2023-05-25T01:37:55.978Z,22.09
2023-05-25T01:40:22.577Z,22.10
2023-05-25T01:42:49.083Z,22.15
2023-05-25T01:45:16.695Z,22.37
2023-05-25T01:47:52.537Z,22.27
2023-05-25T01:50:54.730Z,22.07
2023-05-25T01:53:30.897Z,21.95
2023-05-25T01:56:08.408Z,21.95
2023-05-25T01:58:40.507Z,22.20
2023-05-25T02:01:09.261Z,22.30
2023-05-25T02:03:41.067Z,22.34
2023-05-25T02:06:08.643Z,22.19
2023-05-25T02:08:35.245Z,22.12
2023-05-25T02:11:02.049Z,21.82
2023-05-25T02:13:28.721Z,21.63
2023-05-25T02:15:55.551Z,21.59
2023-05-25T02:18:22.191Z,21.83
2023-05-25T02:20:49.095Z,22.12
2023-05-25T02:23:18.467Z,22.16
2023-05-25T02:25:45.404Z,21.95
2023-05-25T02:28:12.316Z,21.84
2023-05-25T02:30:39.100Z,21.78
2023-05-25T02:33:05.729Z,22.04
2023-05-25T02:35:32.437Z,22.27
2023-05-25T02:37:58.953Z,22.32
2023-05-25T02:40:25.656Z,22.46
2023-05-25T02:42:53.235Z,22.29
2023-05-25T02:45:19.885Z,22.21
2023-05-25T02:47:46.499Z,21.92
2023-05-25T02:50:13.135Z,21.65
2023-05-25T02:52:44.207Z,21.59
2023-05-25T02:55:13.155Z,21.71
2023-05-25T02:57:40.915Z,21.83
2023-05-25T03:00:11.686Z,21.85
2023-05-25T03:02:38.613Z,22.07
2023-05-25T03:05:05.658Z,21.92
2023-05-25T03:07:33.872Z,21.73
2023-05-25T03:10:00.592Z,21.73
2023-05-25T03:12:27.290Z,21.59
2023-05-25T03:14:54.058Z,21.64
2023-05-25T03:17:22.081Z,21.84
2023-05-25T03:19:48.730Z,21.84
2023-05-25T03:22:15.604Z,21.90
2023-05-25T03:24:42.146Z,21.73
2023-05-25T03:27:09.748Z,21.49
2023-05-25T03:29:36.377Z,21.54
2023-05-25T03:32:03.336Z,21.58
2023-05-25T03:34:34.606Z,21.82
2023-05-25T03:37:02.035Z,21.87
2023-05-25T03:39:28.753Z,21.78
2023-05-25T03:41:55.992Z,21.40
2023-05-25T03:44:23.437Z,21.56
2023-05-25T03:46:50.078Z,21.49
2023-05-25T03:49:16.778Z,21.61
2023-05-25T03:51:44.276Z,21.79
2023-05-25T03:54:12.454Z,21.70
2023-05-25T03:56:39.013Z,21.72
2023-05-25T03:59:06.144Z,21.51
2023-05-25T04:01:32.770Z,21.32
2023-05-25T04:03:59.617Z,21.43
2023-05-25T04:06:26.299Z,21.54
2023-05-25T04:08:52.960Z,21.60
2023-05-25T04:11:20.045Z,22.05
2023-05-25T04:13:47.272Z,21.79
2023-05-25T04:16:14.521Z,21.75
2023-05-25T04:18:41.622Z,21.53
2023-05-25T04:21:08.271Z,21.37
2023-05-25T04:23:35.137Z,21.48
2023-05-25T04:26:03.289Z,21.48
2023-05-25T04:28:29.917Z,21.64
2023-05-25T04:31:09.007Z,21.78
2023-05-25T04:33:47.325Z,21.73
2023-05-25T04:36:24.602Z,21.68
2023-05-25T04:38:52.064Z,21.88
2023-05-25T04:41:18.993Z,21.87
2023-05-25T04:44:05.797Z,21.95
2023-05-25T04:46:38.800Z,22.07
2023-05-25T04:49:08.266Z,22.09
2023-05-25T04:51:36.024Z,22.12
2023-05-25T04:54:02.900Z,22.22
2023-05-25T04:56:29.686Z,21.86
2023-05-25T04:58:57.257Z,21.93
2023-05-25T05:01:24.358Z,22.16
2023-05-25T05:03:52.758Z,21.96
2023-05-25T05:06:19.605Z,22.14
2023-05-25T05:08:46.451Z,22.21
2023-05-25T05:11:13.248Z,22.33
2023-05-25T05:13:39.813Z,22.12
2023-05-25T05:16:06.798Z,22.24
2023-05-25T05:18:33.380Z,22.45
2023-05-25T05:21:00.056Z,22.51
2023-05-25T05:23:26.948Z,22.55
2023-05-25T05:25:54.497Z,22.92
2023-05-25T05:28:21.980Z,22.69
2023-05-25T05:30:48.777Z,22.70
2023-05-25T05:33:15.472Z,23.16
2023-05-25T05:35:46.958Z,23.43
2023-05-25T05:38:21.135Z,23.47
2023-05-25T05:40:48.114Z,23.25
2023-05-25T05:43:19.360Z,23.26
2023-05-25T05:45:46.146Z,23.41
2023-05-25T05:48:13.138Z,23.49
2023-05-25T05:50:42.075Z,23.41
2023-05-25T05:53:09.841Z,24.08
2023-05-25T05:55:36.837Z,24.63
2023-05-25T05:58:03.514Z,24.77
2023-05-25T06:00:30.175Z,24.64
2023-05-25T06:02:57.102Z,24.49
2023-05-25T06:05:26.677Z,24.13
2023-05-25T06:07:54.931Z,24.32
2023-05-25T06:10:22.538Z,24.27
2023-05-25T06:12:49.353Z,23.84
2023-05-25T06:15:16.272Z,23.97
2023-05-25T06:17:43.762Z,24.06
2023-05-25T06:20:11.395Z,24.28
2023-05-25T06:22:38.092Z,24.70
2023-05-25T06:25:05.042Z,25.10
2023-05-25T06:27:31.601Z,25.26
2023-05-25T06:29:58.148Z,24.91
2023-05-25T06:32:24.776Z,24.98
2023-05-25T06:34:51.324Z,24.75
2023-05-25T06:37:19.197Z,25.03
2023-05-25T06:39:46.283Z,24.98
2023-05-25T06:42:12.885Z,25.14
2023-05-25T06:44:50.153Z,25.25
2023-05-25T06:47:17.129Z,24.91
2023-05-25T06:49:43.706Z,25.11
2023-05-25T06:52:10.452Z,25.39
2023-05-25T06:54:37.117Z,25.28
2023-05-25T06:57:03.654Z,25.44
2023-05-25T06:59:30.946Z,25.61
2023-05-25T07:01:58.994Z,25.73
2023-05-25T07:04:25.560Z,25.84
2023-05-25T07:06:52.508Z,25.35
2023-05-25T07:09:19.200Z,25.42
2023-05-25T07:11:46.238Z,25.34
2023-05-25T07:14:13.064Z,25.28
2023-05-25T07:16:39.720Z,25.23
2023-05-25T07:19:06.451Z,25.33
2023-05-25T07:21:33.605Z,25.37
2023-05-25T07:24:00.596Z,25.06
2023-05-25T07:26:27.829Z,24.82
2023-05-25T07:28:54.568Z,25.04
2023-05-25T07:31:21.325Z,24.94
2023-05-25T07:33:47.961Z,24.74
2023-05-25T07:36:14.533Z,24.81
2023-05-25T07:38:41.158Z,24.61
2023-05-25T07:41:07.961Z,24.45
2023-05-25T07:43:34.742Z,24.79
2023-05-25T07:46:02.379Z,24.76
2023-05-25T07:48:29.036Z,24.65
2023-05-25T07:50:55.857Z,24.83
2023-05-25T07:53:22.668Z,25.13
2023-05-25T07:55:49.324Z,25.38
2023-05-25T07:58:16.009Z,25.63
2023-05-25T08:00:43.768Z,25.45
2023-05-25T08:03:10.924Z,25.43
2023-05-25T08:05:37.713Z,24.86
2023-05-25T08:08:04.358Z,24.53
2023-05-25T08:10:33.881Z,24.93
2023-05-25T08:13:00.658Z,25.24
2023-05-25T08:15:27.221Z,25.15
2023-05-25T08:17:53.992Z,25.29
2023-05-25T08:20:20.659Z,25.36
2023-05-25T08:22:47.413Z,25.52
2023-05-25T08:25:14.012Z,25.61
2023-05-25T08:27:40.631Z,25.15
2023-05-25T08:30:08.018Z,25.21
2023-05-25T08:32:34.673Z,25.41
2023-05-25T08:35:01.924Z,25.43
2023-05-25T08:37:29.250Z,25.63
2023-05-25T08:39:55.918Z,25.39
2023-05-25T08:42:23.747Z,25.42
2023-05-25T08:44:50.499Z,25.81
2023-05-25T08:47:17.624Z,25.89
2023-05-25T08:49:45.393Z,25.79
2023-05-25T08:52:14.885Z,25.62
2023-05-25T08:54:44.317Z,25.28
2023-05-25T08:57:13.848Z,25.41
2023-05-25T08:59:50.547Z,25.42
2023-05-25T09:02:27.043Z,25.55
2023-05-25T09:04:54.912Z,25.72
2023-05-25T09:07:21.827Z,25.49
2023-05-25T09:09:48.985Z,25.57
2023-05-25T09:12:16.135Z,25.79
2023-05-25T09:14:45.514Z,25.80
2023-05-25T09:17:16.763Z,25.85
2023-05-25T09:19:44.116Z,25.54
2023-05-25T09:22:15.621Z,25.54
2023-05-25T09:24:44.312Z,25.57
2023-05-25T09:27:12.862Z,25.87
2023-05-25T09:29:39.514Z,25.89
2023-05-25T09:32:06.804Z,25.93
2023-05-25T09:34:34.461Z,26.05
2023-05-25T09:37:11.623Z,25.96
2023-05-25T09:39:39.683Z,25.88
2023-05-25T09:42:06.557Z,26.15
2023-05-25T09:44:33.225Z,26.12
2023-05-25T09:46:59.856Z,26.20
2023-05-25T09:49:27.109Z,25.84
2023-05-25T09:51:53.636Z,25.86
2023-05-25T09:54:22.808Z,25.89
2023-05-25T09:56:49.551Z,25.87
2023-05-25T09:59:16.284Z,25.97
2023-05-25T10:01:44.341Z,26.08
2023-05-25T10:04:11.418Z,25.99
2023-05-25T10:06:39.324Z,25.93
2023-05-25T10:09:06.797Z,26.11
2023-05-25T10:11:37.443Z,26.05
2023-05-25T10:14:07.317Z,25.94
2023-05-25T10:16:34.779Z,25.65
2023-05-25T10:19:10.007Z,25.52
2023-05-25T10:21:39.277Z,25.60
2023-05-25T10:24:24.439Z,25.85
2023-05-25T10:26:54.466Z,26.31
2023-05-25T10:29:24.818Z,26.17
2023-05-25T10:31:53.120Z,26.12
2023-05-25T10:34:21.768Z,26.29
2023-05-25T10:36:48.992Z,26.31
2023-05-25T10:39:16.081Z,26.63
2023-05-25T10:41:43.624Z,26.32
2023-05-25T10:44:11.096Z,25.99
2023-05-25T10:46:37.845Z,26.14
2023-05-25T10:49:04.388Z,26.35
2023-05-25T10:51:40.654Z,26.44
2023-05-25T10:54:07.641Z,26.18
2023-05-25T10:56:34.204Z,26.30
2023-05-25T10:59:01.984Z,26.41
2023-05-25T11:01:33.409Z,26.44
2023-05-25T11:04:09.621Z,26.22
2023-05-25T11:06:44.406Z,26.30
2023-05-25T11:09:27.451Z,26.39
2023-05-25T11:11:56.042Z,26.54
2023-05-25T11:14:33.849Z,26.62
2023-05-25T11:17:15.357Z,26.79
2023-05-25T11:19:51.756Z,26.74
2023-05-25T11:22:23.523Z,26.87
2023-05-25T11:24:53.829Z,26.52
2023-05-25T11:27:26.780Z,26.93
2023-05-25T11:29:54.935Z,27.17
2023-05-25T11:32:22.601Z,27.32
2023-05-25T11:34:52.849Z,27.47
2023-05-25T11:37:21.555Z,26.92
2023-05-25T11:39:52.564Z,27.13
2023-05-25T11:42:21.913Z,27.24
2023-05-25T11:44:48.637Z,27.52
2023-05-25T11:47:19.375Z,27.62
2023-05-25T11:49:47.555Z,27.31
2023-05-25T11:52:15.666Z,27.09
2023-05-25T11:54:42.826Z,27.54
2023-05-25T11:57:19.201Z,27.22
2023-05-25T11:59:53.538Z,27.33
2023-05-25T12:02:21.152Z,27.50
2023-05-25T12:04:59.284Z,27.01
2023-05-25T12:07:27.271Z,27.50
2023-05-25T12:10:06.168Z,27.23
2023-05-25T12:12:49.746Z,27.57
2023-05-25T12:15:24.993Z,27.89
2023-05-25T12:17:53.688Z,27.89
2023-05-25T12:20:21.089Z,27.85
2023-05-25T12:22:48.066Z,27.53
2023-05-25T12:25:19.326Z,27.84
2023-05-25T12:27:46.208Z,27.71
2023-05-25T12:30:12.929Z,27.81
2023-05-25T12:33:04.529Z,28.16
2023-05-25T12:35:45.219Z,27.97
2023-05-25T12:38:21.404Z,28.20
2023-05-25T12:41:04.935Z,28.04
2023-05-25T12:43:42.889Z,27.96
2023-05-25T12:46:09.520Z,28.11
2023-05-25T12:48:36.102Z,28.39
2023-05-25T12:51:02.680Z,27.87
2023-05-25T12:53:30.965Z,28.03
2023-05-25T12:56:04.780Z,27.79
2023-05-25T12:58:31.624Z,28.05
2023-05-25T13:00:58.402Z,28.40
2023-05-25T13:03:24.987Z,28.38
2023-05-25T13:05:51.737Z,28.65
2023-05-25T13:08:18.350Z,28.87
2023-05-25T13:10:48.487Z,29.08
2023-05-25T13:13:15.080Z,29.10
2023-05-25T13:15:41.588Z,28.85
2023-05-25T13:18:08.260Z,28.12
2023-05-25T13:20:36.640Z,28.59
2023-05-25T13:23:03.377Z,28.22
2023-05-25T13:25:30.044Z,28.21
2023-05-25T13:27:59.673Z,28.23
2023-05-25T13:30:26.791Z,28.68
2023-05-25T13:32:53.408Z,28.51
2023-05-25T13:35:37.076Z,29.07
2023-05-25T13:38:03.971Z,29.08
2023-05-25T13:40:30.568Z,28.81
2023-05-25T13:42:57.165Z,29.04
2023-05-25T13:45:23.738Z,29.00
2023-05-25T13:47:50.500Z,28.56
2023-05-25T13:50:17.230Z,28.50
2023-05-25T13:52:43.811Z,29.37
2023-05-25T13:55:10.361Z,29.11
2023-05-25T13:57:37.592Z,29.31
2023-05-25T14:00:05.197Z,29.19
2023-05-25T14:02:34.982Z,29.59
2023-05-25T14:05:01.616Z,29.42
2023-05-25T14:07:28.224Z,29.29
2023-05-25T14:09:54.785Z,29.17
2023-05-25T14:12:21.464Z,28.91
2023-05-25T14:14:47.984Z,29.16
2023-05-25T14:17:14.546Z,29.35
2023-05-25T14:19:41.061Z,29.27
2023-05-25T14:22:13.909Z,29.35
2023-05-25T14:24:41.810Z,29.55
2023-05-25T14:27:08.758Z,29.19
2023-05-25T14:29:35.628Z,29.35
2023-05-25T14:32:02.387Z,29.32
2023-05-25T14:34:29.411Z,29.75
2023-05-25T14:36:56.154Z,29.35
2023-05-25T14:39:22.812Z,29.21
2023-05-25T14:41:49.393Z,29.24
2023-05-25T14:44:16.420Z,29.35
2023-05-25T14:46:42.976Z,29.40
2023-05-25T14:49:09.865Z,29.62
2023-05-25T14:51:36.883Z,29.36
2023-05-25T14:54:05.335Z,28.99
2023-05-25T14:56:31.932Z,29.09
2023-05-25T14:58:58.584Z,29.32
2023-05-25T15:01:25.673Z,29.18
2023-05-25T15:03:52.566Z,29.42
2023-05-25T15:06:19.471Z,29.74
2023-05-25T15:08:46.894Z,29.70
2023-05-25T15:11:13.412Z,29.62
2023-05-25T15:13:40.813Z,29.60
2023-05-25T15:16:11.108Z,29.32
2023-05-25T15:18:37.775Z,29.58
2023-05-25T15:21:04.474Z,29.58
2023-05-25T15:23:31.965Z,29.61
2023-05-25T15:26:02.993Z,29.47
2023-05-25T15:28:30.548Z,29.61
2023-05-25T15:30:57.629Z,29.71
2023-05-25T15:33:35.724Z,29.76
2023-05-25T15:36:10.617Z,29.51
2023-05-25T15:38:37.192Z,29.91
2023-05-25T15:41:03.817Z,29.81
2023-05-25T15:43:30.559Z,29.99
2023-05-25T15:45:57.314Z,29.86
2023-05-25T15:48:26.206Z,29.74
2023-05-25T15:50:53.075Z,29.38
2023-05-25T15:53:19.609Z,29.26
2023-05-25T15:55:46.638Z,29.32
2023-05-25T15:58:13.329Z,29.43
2023-05-25T16:00:39.995Z,29.52
2023-05-25T16:03:06.617Z,29.30
2023-05-25T16:05:33.330Z,29.85
2023-05-25T16:07:59.890Z,29.65
2023-05-25T16:10:26.511Z,29.67
2023-05-25T16:12:53.122Z,29.56
2023-05-25T16:15:19.772Z,29.39
2023-05-25T16:17:46.294Z,29.39
2023-05-25T16:20:12.900Z,29.58
2023-05-25T16:22:39.498Z,30.01
2023-05-25T16:25:06.582Z,30.19
2023-05-25T16:27:33.268Z,30.06
2023-05-25T16:29:59.855Z,29.84
2023-05-25T16:32:29.712Z,29.49
2023-05-25T16:34:56.332Z,29.35
2023-05-25T16:37:22.867Z,29.53
2023-05-25T16:39:49.440Z,29.60
2023-05-25T16:42:16.187Z,30.09
2023-05-25T16:44:42.786Z,30.34
2023-05-25T16:47:09.292Z,30.34
2023-05-25T16:49:35.918Z,30.31
2023-05-25T16:52:02.629Z,30.39
2023-05-25T16:54:29.514Z,30.53
2023-05-25T16:56:56.093Z,29.90
2023-05-25T16:59:22.642Z,30.14
2023-05-25T17:01:49.240Z,30.29
2023-05-25T17:04:15.851Z,30.50
2023-05-25T17:06:42.359Z,30.47
2023-05-25T17:09:09.089Z,30.51
2023-05-25T17:11:35.634Z,30.51
2023-05-25T17:14:02.176Z,30.36
2023-05-25T17:16:28.882Z,30.21
2023-05-25T17:18:55.591Z,30.08
2023-05-25T17:21:22.181Z,30.16
2023-05-25T17:23:49.204Z,30.30
2023-05-25T17:26:15.831Z,30.33
2023-05-25T17:28:42.425Z,30.48
2023-05-25T17:31:09.502Z,30.37
2023-05-25T17:33:36.271Z,30.28
2023-05-25T17:36:02.802Z,30.19
2023-05-25T17:38:29.418Z,30.45
2023-05-25T17:40:56.060Z,30.28
2023-05-25T17:43:22.727Z,30.12
2023-05-25T17:45:49.272Z,29.85
2023-05-25T17:48:15.969Z,30.14
2023-05-25T17:50:42.573Z,30.29
2023-05-25T17:57:47.425Z,29.65
2023-05-25T18:00:15.359Z,29.88
2023-05-25T18:02:42.218Z,30.07
2023-05-25T18:05:09.016Z,30.05
2023-05-25T18:07:35.628Z,30.02
2023-05-25T18:10:02.262Z,29.96
2023-05-25T18:12:28.848Z,29.86
2023-05-25T18:14:55.498Z,29.60
2023-05-25T18:17:22.075Z,29.55
2023-05-25T18:19:48.676Z,29.41
2023-05-25T18:22:15.300Z,29.40
2023-05-25T18:24:41.912Z,28.93
2023-05-25T18:27:08.579Z,28.70
2023-05-25T18:29:35.374Z,28.50
2023-05-25T18:32:01.952Z,28.73
2023-05-25T18:34:30.207Z,28.49
2023-05-25T18:36:56.765Z,28.62
2023-05-25T18:39:23.338Z,28.54
2023-05-25T18:41:49.966Z,28.35
2023-05-25T18:44:16.585Z,28.32
2023-05-25T18:46:44.848Z,28.47
2023-05-25T18:49:11.570Z,28.57
2023-05-25T18:51:38.214Z,28.42
2023-05-25T18:57:57.368Z,28.69
2023-05-25T19:00:24.835Z,28.72
2023-05-25T19:02:51.868Z,28.76
2023-05-25T19:05:20.064Z,28.70
2023-05-25T19:10:16.947Z,28.21
2023-05-25T19:12:43.659Z,28.27
2023-05-25T19:15:10.638Z,28.33
2023-05-25T19:17:37.196Z,28.32
2023-05-25T19:20:04.035Z,28.22
2023-05-25T19:22:30.771Z,28.17
2023-05-25T19:25:00.703Z,28.22
2023-05-25T19:27:27.838Z,28.06
2023-05-25T19:29:54.471Z,27.66
2023-05-25T19:32:21.083Z,27.51
2023-05-25T19:34:47.897Z,27.60
2023-05-25T19:37:14.587Z,27.77
2023-05-25T19:39:41.478Z,27.94
2023-05-25T19:42:09.377Z,27.54
2023-05-25T19:44:35.972Z,27.26
2023-05-25T19:47:02.640Z,27.66
2023-05-25T19:49:29.268Z,27.71
2023-05-25T19:51:55.921Z,27.63
2023-05-25T19:54:22.548Z,27.59
2023-05-25T19:56:49.508Z,27.58
2023-05-25T19:59:16.554Z,27.20
2023-05-25T20:01:43.537Z,27.11
2023-05-25T20:04:10.239Z,27.09
2023-05-25T20:06:37.415Z,27.00
2023-05-25T20:09:04.467Z,27.02
2023-05-25T20:11:31.098Z,26.92
2023-05-25T20:13:57.724Z,26.96
2023-05-25T20:16:25.842Z,26.79
2023-05-25T20:18:52.530Z,26.43
2023-05-25T20:21:20.061Z,26.50
2023-05-25T20:23:46.816Z,26.50
2023-05-25T20:26:13.466Z,26.75
2023-05-25T20:28:40.107Z,26.59
2023-05-25T20:31:06.886Z,26.29
2023-05-25T20:33:33.456Z,26.39
2023-05-25T20:36:00.172Z,26.63
2023-05-25T20:38:26.712Z,26.64
2023-05-25T20:40:53.391Z,26.57
2023-05-25T20:43:20.001Z,26.71
2023-05-25T20:45:46.968Z,26.78
2023-05-25T20:48:14.973Z,26.47
2023-05-25T20:50:41.597Z,26.45
2023-05-25T20:53:08.186Z,26.61
2023-05-25T20:55:34.856Z,26.54
2023-05-25T20:58:01.407Z,26.46
2023-05-25T21:00:27.984Z,26.55
2023-05-25T21:02:54.555Z,26.60
2023-05-25T21:05:21.187Z,26.67
2023-05-25T21:07:47.705Z,26.65
2023-05-25T21:10:14.309Z,26.69
2023-05-25T21:12:41.525Z,26.58
2023-05-25T21:15:08.542Z,26.44
2023-05-25T21:17:35.076Z,26.27
2023-05-25T21:20:01.830Z,26.09
2023-05-25T21:22:28.429Z,25.88
2023-05-25T21:24:55.074Z,25.86
2023-05-25T21:27:21.663Z,25.62
2023-05-25T21:29:48.268Z,25.73
2023-05-25T21:32:15.013Z,25.77
2023-05-25T21:34:42.190Z,25.67
2023-05-25T21:37:08.719Z,25.60
2023-05-25T21:39:35.277Z,25.38
2023-05-25T21:42:02.278Z,25.34
2023-05-25T21:44:28.901Z,25.65
2023-05-25T21:46:55.466Z,25.54
2023-05-25T21:49:22.088Z,25.18
2023-05-25T21:51:48.589Z,24.98
2023-05-25T21:54:15.899Z,25.11
2023-05-25T21:56:42.493Z,25.05
2023-05-25T21:59:09.172Z,25.35
2023-05-25T22:01:36.083Z,25.32
2023-05-25T22:04:02.724Z,25.02
2023-05-25T22:06:29.667Z,24.97
2023-05-25T22:08:56.222Z,25.05
2023-05-25T22:11:22.862Z,25.13
2023-05-25T22:13:49.502Z,25.32
2023-05-25T22:16:16.067Z,25.09
2023-05-25T22:18:42.817Z,25.26
2023-05-25T22:21:09.391Z,25.13
2023-05-25T22:23:35.982Z,25.10
2023-05-25T22:26:02.685Z,24.97
2023-05-25T22:28:29.274Z,24.78
2023-05-25T22:30:56.000Z,24.81
2023-05-25T22:33:22.659Z,24.72
2023-05-25T22:35:49.222Z,24.81
2023-05-25T22:38:15.835Z,24.86
2023-05-25T22:40:47.197Z,24.49
2023-05-25T22:43:14.633Z,24.42
2023-05-25T22:45:41.607Z,24.46
2023-05-25T22:48:08.906Z,24.30
2023-05-25T22:50:35.520Z,24.22
2023-05-25T22:53:02.284Z,24.36
2023-05-25T22:55:28.837Z,24.02
2023-05-25T22:57:55.841Z,24.07
2023-05-25T23:00:22.999Z,24.12
2023-05-25T23:02:49.780Z,24.32
2023-05-25T23:05:16.440Z,24.32
2023-05-25T23:07:43.698Z,24.36
2023-05-25T23:10:10.824Z,24.42
2023-05-25T23:12:37.515Z,24.41
2023-05-25T23:15:04.772Z,24.16
2023-05-25T23:17:32.489Z,24.11
2023-05-25T23:19:59.106Z,24.23
2023-05-25T23:22:25.952Z,24.34
2023-05-25T23:24:52.510Z,24.33
2023-05-25T23:27:19.166Z,24.47
2023-05-25T23:29:45.819Z,24.24
2023-05-25T23:32:12.480Z,24.12
2023-05-25T23:34:39.012Z,24.30
2023-05-25T23:37:06.530Z,24.25
2023-05-25T23:39:33.382Z,24.28
2023-05-25T23:42:00.105Z,23.98
2023-05-25T23:44:26.652Z,24.05
2023-05-25T23:46:53.326Z,24.03
2023-05-25T23:49:20.003Z,23.63
2023-05-25T23:51:46.709Z,23.93
2023-05-25T23:54:13.338Z,23.93
2023-05-25T23:56:39.917Z,24.08
2023-05-25T23:59:06.522Z,24.12
